createdAt,value
2018-10-18T00:02:14.184Z,48.58
2018-10-18T00:04:49.862Z,47.83
2018-10-18T00:07:25.410Z,49.05
2018-10-18T00:10:00.705Z,47.10
2018-10-18T00:12:36.228Z,46.75
2018-10-18T00:15:11.489Z,44.83
2018-10-18T00:17:47.916Z,46.00
2018-10-18T00:20:23.709Z,48.05
2018-10-18T00:22:59.396Z,45.58
2018-10-18T00:25:34.791Z,44.98
2018-10-18T00:28:10.229Z,44.03
2018-10-18T00:30:45.612Z,44.77
2018-10-18T00:33:21.449Z,42.50
2018-10-18T00:35:56.825Z,44.80
2018-10-18T00:38:32.449Z,45.30
2018-10-18T00:41:08.043Z,46.18
2018-10-18T00:43:43.860Z,45.43
2018-10-18T00:46:19.372Z,46.23
2018-10-18T00:48:54.794Z,44.75
2018-10-18T00:51:30.355Z,46.45
2018-10-18T00:54:06.482Z,48.02
2018-10-18T00:56:41.781Z,45.75
2018-10-18T00:59:17.346Z,45.50
2018-10-18T01:01:52.754Z,44.65
2018-10-18T01:04:28.517Z,43.48
2018-10-18T01:07:04.006Z,45.33
2018-10-18T01:09:39.605Z,44.80
2018-10-18T01:12:14.971Z,44.42
2018-10-18T01:14:50.301Z,41.95
2018-10-18T01:17:25.681Z,43.33
2018-10-18T01:20:01.946Z,41.60
2018-10-18T01:22:37.373Z,40.65
2018-10-18T01:25:12.836Z,41.40
2018-10-18T01:27:48.465Z,43.68
2018-10-18T01:30:24.100Z,41.45
2018-10-18T01:32:59.331Z,41.73
2018-10-18T01:35:34.918Z,40.28
2018-10-18T01:38:10.387Z,39.83
2018-10-18T01:40:45.664Z,43.02
2018-10-18T01:43:21.053Z,41.58
2018-10-18T01:45:56.536Z,40.35
2018-10-18T01:48:31.901Z,39.95
2018-10-18T01:51:07.283Z,36.55
2018-10-18T01:53:42.998Z,37.30
2018-10-18T01:56:18.546Z,37.42
2018-10-18T01:58:54.033Z,37.73
2018-10-18T02:01:30.396Z,40.00
2018-10-18T02:04:06.285Z,40.23
2018-10-18T02:06:41.713Z,39.42
2018-10-18T02:09:17.182Z,40.60
2018-10-18T02:11:59.309Z,43.17
2018-10-18T02:14:34.661Z,43.95
2018-10-18T02:17:10.100Z,42.83
2018-10-18T02:19:45.591Z,41.25
2018-10-18T02:22:21.285Z,43.28
2018-10-18T02:24:56.654Z,39.53
2018-10-18T02:27:32.060Z,34.65
2018-10-18T02:30:07.559Z,32.38
2018-10-18T02:32:43.286Z,33.75
2018-10-18T02:35:18.613Z,33.63
2018-10-18T02:37:54.190Z,34.15
2018-10-18T02:40:29.559Z,34.67
2018-10-18T02:43:05.478Z,31.05
2018-10-18T02:45:40.895Z,33.98
2018-10-18T02:48:16.344Z,34.63
2018-10-18T02:50:51.773Z,32.28
2018-10-18T02:53:27.320Z,32.98
2018-10-18T02:56:02.661Z,32.48
2018-10-18T02:58:38.122Z,33.40
2018-10-18T03:01:13.614Z,31.37
2018-10-18T03:03:49.125Z,32.73
2018-10-18T03:06:24.597Z,34.08
2018-10-18T03:09:00.013Z,35.90
2018-10-18T03:11:35.209Z,34.18
2018-10-18T03:14:10.648Z,34.38
2018-10-18T03:16:45.858Z,33.00
2018-10-18T03:19:21.265Z,32.65
2018-10-18T03:21:56.800Z,31.87
2018-10-18T03:24:32.497Z,32.45
2018-10-18T03:27:07.919Z,33.83
2018-10-18T03:29:43.385Z,31.52
2018-10-18T03:32:18.789Z,31.75
2018-10-18T03:34:54.373Z,31.65
2018-10-18T03:37:29.745Z,33.85
2018-10-18T03:40:05.361Z,33.08
2018-10-18T03:42:40.832Z,33.00
2018-10-18T03:45:16.293Z,31.20
2018-10-18T03:47:51.803Z,33.13
2018-10-18T03:50:27.449Z,31.10
2018-10-18T03:53:02.824Z,32.00
2018-10-18T03:55:38.336Z,30.72
2018-10-18T03:58:13.910Z,30.25
2018-10-18T04:00:49.459Z,31.70
2018-10-18T04:03:24.738Z,31.12
2018-10-18T04:06:00.294Z,32.00
2018-10-18T04:08:35.665Z,31.05
2018-10-18T04:11:11.443Z,30.50
2018-10-18T04:13:46.742Z,31.42
2018-10-18T04:16:22.313Z,29.80
2018-10-18T04:18:57.871Z,30.40
2018-10-18T04:21:33.275Z,30.20
2018-10-18T04:24:08.691Z,27.62
2018-10-18T04:26:44.298Z,27.45
2018-10-18T04:29:19.814Z,29.35
2018-10-18T04:31:55.407Z,28.40
2018-10-18T04:34:30.970Z,28.40
2018-10-18T04:37:06.474Z,25.80
2018-10-18T04:39:41.799Z,25.50
2018-10-18T04:42:17.379Z,25.88
2018-10-18T04:44:52.617Z,25.62
2018-10-18T04:47:28.483Z,26.17
2018-10-18T04:50:03.840Z,24.52
2018-10-18T04:52:39.441Z,23.30
2018-10-18T04:55:14.832Z,23.90
2018-10-18T04:57:50.579Z,24.18
2018-10-18T05:00:26.061Z,25.32
2018-10-18T05:03:01.577Z,23.18
2018-10-18T05:05:48.967Z,24.18
2018-10-18T05:08:25.339Z,24.15
2018-10-18T05:11:00.863Z,27.30
2018-10-18T05:13:36.364Z,25.55
2018-10-18T05:16:11.637Z,24.07
2018-10-18T05:18:47.075Z,26.17
2018-10-18T05:21:22.591Z,26.17
2018-10-18T05:23:58.221Z,27.50
2018-10-18T05:26:33.646Z,27.80
2018-10-18T05:29:09.092Z,28.55
2018-10-18T05:31:44.676Z,27.50
2018-10-18T05:34:19.988Z,28.25
2018-10-18T05:36:55.574Z,26.73
2018-10-18T05:39:30.993Z,27.45
2018-10-18T05:42:06.510Z,27.42
2018-10-18T05:44:41.965Z,28.25
2018-10-18T05:47:17.557Z,29.05
2018-10-18T05:49:53.066Z,27.48
2018-10-18T05:52:28.465Z,30.08
2018-10-18T05:55:04.233Z,29.02
2018-10-18T05:57:40.053Z,29.63
2018-10-18T06:00:18.185Z,31.45
2018-10-18T06:02:53.509Z,28.73
2018-10-18T06:05:29.092Z,29.18
2018-10-18T06:08:04.569Z,27.42
2018-10-18T06:10:57.028Z,27.17
2018-10-18T06:13:32.498Z,22.98
2018-10-18T06:16:08.121Z,24.82
2018-10-18T06:18:43.325Z,24.30
2018-10-18T06:21:18.724Z,25.02
2018-10-18T06:23:53.941Z,24.20
2018-10-18T06:26:29.420Z,23.00
2018-10-18T06:29:05.163Z,22.95
2018-10-18T06:31:40.492Z,23.27
2018-10-18T06:34:15.805Z,20.62
2018-10-18T06:36:51.382Z,23.35
2018-10-18T06:39:26.690Z,22.10
2018-10-18T06:42:02.560Z,21.35
2018-10-18T06:44:38.034Z,22.22
2018-10-18T06:47:13.932Z,21.70
2018-10-18T06:49:49.258Z,20.70
2018-10-18T06:52:24.849Z,21.23
2018-10-18T06:55:00.901Z,20.70
2018-10-18T06:57:37.281Z,20.25
2018-10-18T07:00:22.617Z,20.35
2018-10-18T07:02:58.749Z,19.87
2018-10-18T07:05:34.198Z,19.92
2018-10-18T07:08:09.625Z,20.60
2018-10-18T07:10:45.095Z,19.65
2018-10-18T07:13:20.552Z,18.40
2018-10-18T07:15:56.169Z,19.10
2018-10-18T07:18:31.807Z,18.60
2018-10-18T07:21:07.415Z,17.70
2018-10-18T07:23:42.952Z,20.88
2018-10-18T07:26:18.340Z,19.02
2018-10-18T07:28:53.820Z,19.50
2018-10-18T07:31:29.459Z,19.82
2018-10-18T07:34:05.261Z,20.17
2018-10-18T07:36:40.765Z,20.97
2018-10-18T07:39:16.693Z,21.65
2018-10-18T07:41:52.231Z,20.57
2018-10-18T07:44:27.794Z,20.88
2018-10-18T07:47:03.219Z,19.32
2018-10-18T07:49:38.903Z,19.77
2018-10-18T07:52:14.364Z,19.67
2018-10-18T07:54:49.768Z,19.85
2018-10-18T07:57:25.061Z,18.37
2018-10-18T08:00:00.694Z,19.90
2018-10-18T08:02:36.453Z,18.45
2018-10-18T08:05:12.395Z,19.50
2018-10-18T08:07:47.850Z,18.05
2018-10-18T08:10:23.408Z,18.05
2018-10-18T08:12:58.794Z,18.95
2018-10-18T08:15:34.251Z,19.95
2018-10-18T08:18:09.751Z,20.17
2018-10-18T08:20:45.177Z,20.20
2018-10-18T08:23:20.349Z,22.05
2018-10-18T08:25:55.816Z,21.27
2018-10-18T08:28:31.225Z,24.07
2018-10-18T08:31:06.890Z,21.50
2018-10-18T08:33:42.304Z,21.52
2018-10-18T08:36:17.798Z,21.40
2018-10-18T08:38:53.180Z,23.40
2018-10-18T08:41:28.521Z,22.15
2018-10-18T08:44:04.129Z,22.82
2018-10-18T08:46:39.685Z,24.23
2018-10-18T08:49:15.035Z,21.35
2018-10-18T08:51:50.380Z,23.22
2018-10-18T08:54:25.967Z,21.52
2018-10-18T08:57:01.489Z,26.20
2018-10-18T08:59:36.889Z,22.95
2018-10-18T09:02:12.323Z,22.25
2018-10-18T09:04:47.797Z,27.27
2018-10-18T09:07:23.397Z,23.70
2018-10-18T09:09:58.693Z,22.93
2018-10-18T09:12:34.325Z,22.30
2018-10-18T09:15:10.508Z,24.95
2018-10-18T09:17:46.112Z,21.90
2018-10-18T09:20:21.605Z,25.45
2018-10-18T09:22:57.087Z,23.70
2018-10-18T09:25:32.705Z,23.85
2018-10-18T09:28:08.255Z,24.02
2018-10-18T09:30:43.765Z,27.13
2018-10-18T09:33:19.232Z,23.73
2018-10-18T09:35:54.489Z,22.98
2018-10-18T09:38:30.291Z,24.02
2018-10-18T09:41:05.710Z,23.35
2018-10-18T09:43:41.326Z,24.18
2018-10-18T09:46:16.733Z,22.52
2018-10-18T09:48:52.240Z,22.50
2018-10-18T09:51:27.773Z,23.05
2018-10-18T09:54:03.966Z,23.57
2018-10-18T09:56:39.311Z,25.55
2018-10-18T09:59:14.777Z,23.30
2018-10-18T10:01:55.401Z,24.35
2018-10-18T10:04:31.025Z,23.80
2018-10-18T10:07:06.601Z,23.35
2018-10-18T10:09:41.977Z,24.20
2018-10-18T10:12:17.383Z,23.60
2018-10-18T10:14:52.930Z,25.12
2018-10-18T10:17:28.347Z,24.02
2018-10-18T10:20:03.849Z,22.20
2018-10-18T10:22:39.388Z,21.37
2018-10-18T10:25:15.153Z,19.02
2018-10-18T10:27:50.344Z,17.25
2018-10-18T10:30:26.167Z,15.95
2018-10-18T10:33:01.565Z,16.45
2018-10-18T10:35:37.254Z,13.10
2018-10-18T10:38:12.409Z,12.65
2018-10-18T10:40:47.998Z,9.98
2018-10-18T10:43:23.409Z,10.38
2018-10-18T10:45:58.746Z,11.10
2018-10-18T10:48:34.321Z,12.03
2018-10-18T10:51:09.789Z,11.70
2018-10-18T10:53:45.196Z,10.35
2018-10-18T10:56:20.745Z,10.78
2018-10-18T10:58:56.085Z,10.35
2018-10-18T11:01:31.533Z,11.10
2018-10-18T11:04:06.992Z,11.05
2018-10-18T11:06:42.448Z,12.73
2018-10-18T11:09:17.876Z,10.38
2018-10-18T11:11:53.611Z,12.47
2018-10-18T11:14:29.072Z,10.03
2018-10-18T11:17:05.125Z,10.53
2018-10-18T11:19:41.115Z,8.00
2018-10-18T11:22:16.573Z,5.47
2018-10-18T11:24:52.060Z,5.00
2018-10-18T11:27:27.473Z,4.25
2018-10-18T11:30:02.867Z,4.83
2018-10-18T11:32:38.233Z,4.83
2018-10-18T11:35:13.702Z,4.45
2018-10-18T11:37:49.085Z,5.83
2018-10-18T11:40:24.465Z,5.10
2018-10-18T11:43:00.189Z,5.42
2018-10-18T11:45:35.633Z,6.00
2018-10-18T11:48:13.456Z,6.35
2018-10-18T11:50:48.781Z,6.25
2018-10-18T11:53:24.258Z,6.95
2018-10-18T11:55:59.764Z,6.20
2018-10-18T11:58:35.453Z,6.95
2018-10-18T12:01:10.837Z,6.25
2018-10-18T12:03:46.471Z,7.08
2018-10-18T12:06:21.928Z,6.75
2018-10-18T12:08:57.336Z,6.90
2018-10-18T12:11:32.721Z,6.42
2018-10-18T12:14:09.208Z,6.22
2018-10-18T12:16:44.433Z,6.03
2018-10-18T12:19:19.910Z,5.37
2018-10-18T12:21:55.485Z,5.03
2018-10-18T12:24:30.941Z,6.08
2018-10-18T12:27:06.970Z,4.58
2018-10-18T12:29:42.552Z,4.87
2018-10-18T12:32:18.018Z,5.15
2018-10-18T12:34:53.674Z,4.95
2018-10-18T12:37:29.093Z,4.55
2018-10-18T12:40:05.051Z,5.10
2018-10-18T12:42:42.257Z,4.60
2018-10-18T12:45:17.849Z,4.05
2018-10-18T12:47:53.236Z,4.12
2018-10-18T12:50:28.761Z,4.58
2018-10-18T12:53:04.306Z,3.65
2018-10-18T12:55:39.712Z,3.50
2018-10-18T12:58:15.203Z,4.15
2018-10-18T13:00:50.643Z,3.87
2018-10-18T13:03:26.217Z,3.40
2018-10-18T13:06:01.800Z,3.40
2018-10-18T13:08:37.217Z,3.33
2018-10-18T13:11:12.646Z,3.77
2018-10-18T13:13:48.038Z,3.25
2018-10-18T13:16:23.774Z,3.20
2018-10-18T13:18:59.294Z,5.05
2018-10-18T13:21:34.908Z,3.77
2018-10-18T13:24:10.417Z,3.80
2018-10-18T13:26:45.882Z,3.98
2018-10-18T13:29:21.388Z,6.80
2018-10-18T13:31:56.956Z,3.35
2018-10-18T13:34:32.282Z,3.33
2018-10-18T13:37:07.785Z,3.22
2018-10-18T13:39:43.113Z,3.60
2018-10-18T13:42:18.584Z,3.35
2018-10-18T13:44:54.181Z,2.30
2018-10-18T13:47:29.608Z,2.30
2018-10-18T13:50:05.274Z,2.25
2018-10-18T13:52:41.293Z,2.58
2018-10-18T13:55:16.744Z,2.52
2018-10-18T13:57:52.327Z,2.42
2018-10-18T14:00:30.893Z,2.05
2018-10-18T14:03:06.493Z,1.80
2018-10-18T14:05:41.855Z,2.00
2018-10-18T14:08:17.385Z,2.70
2018-10-18T14:10:52.728Z,4.00
2018-10-18T14:13:28.330Z,2.80
2018-10-18T14:16:03.891Z,2.70
2018-10-18T14:18:39.649Z,3.35
2018-10-18T14:21:15.110Z,4.70
2018-10-18T14:23:50.698Z,2.05
2018-10-18T14:26:25.917Z,2.42
2018-10-18T14:29:01.795Z,2.50
2018-10-18T14:31:37.088Z,2.92
2018-10-18T14:34:12.823Z,2.83
2018-10-18T14:36:48.321Z,1.98
2018-10-18T14:39:23.736Z,2.52
2018-10-18T14:41:58.996Z,2.52
2018-10-18T14:44:34.653Z,1.90
2018-10-18T14:47:10.012Z,1.92
2018-10-18T14:49:45.999Z,2.10
2018-10-18T14:52:21.475Z,2.08
2018-10-18T14:54:56.825Z,1.82
2018-10-18T14:57:32.319Z,2.33
2018-10-18T15:00:11.113Z,1.92
2018-10-18T15:02:46.811Z,2.10
2018-10-18T15:05:22.631Z,2.10
2018-10-18T15:07:57.949Z,2.00
2018-10-18T15:10:33.374Z,2.55
2018-10-18T15:13:08.870Z,1.80
2018-10-18T15:15:44.291Z,2.05
2018-10-18T15:18:19.790Z,1.85
2018-10-18T15:20:55.458Z,1.92
2018-10-18T15:23:30.959Z,2.35
2018-10-18T15:26:06.718Z,1.67
2018-10-18T15:28:42.228Z,1.55
2018-10-18T15:31:17.662Z,1.90
2018-10-18T15:33:53.090Z,2.42
2018-10-18T15:36:28.626Z,1.85
2018-10-18T15:39:04.967Z,2.58
2018-10-18T15:41:41.157Z,1.75
2018-10-18T15:44:17.101Z,2.27
2018-10-18T15:46:52.469Z,1.95
2018-10-18T15:49:27.976Z,1.50
2018-10-18T15:52:03.729Z,1.90
2018-10-18T15:54:39.406Z,2.40
2018-10-18T15:57:15.252Z,1.70
2018-10-18T15:59:50.541Z,1.92
2018-10-18T16:02:26.023Z,1.80
2018-10-18T16:05:01.426Z,3.10
2018-10-18T16:07:37.137Z,1.47
2018-10-18T16:10:12.500Z,3.65
2018-10-18T16:12:47.957Z,2.20
2018-10-18T16:15:23.437Z,2.27
2018-10-18T16:17:59.043Z,1.90
2018-10-18T16:20:34.283Z,3.20
2018-10-18T16:23:09.959Z,3.05
2018-10-18T16:25:45.513Z,3.95
2018-10-18T16:28:21.193Z,2.42
2018-10-18T16:30:56.509Z,5.58
2018-10-18T16:33:31.843Z,2.27
2018-10-18T16:36:07.140Z,7.58
2018-10-18T16:38:42.888Z,4.08
2018-10-18T16:41:18.361Z,4.00
2018-10-18T16:43:53.834Z,3.72
2018-10-18T16:46:29.410Z,4.60
2018-10-18T16:49:05.369Z,2.35
2018-10-18T16:51:40.702Z,2.92
2018-10-18T16:54:16.323Z,3.58
2018-10-18T16:56:51.455Z,4.33
2018-10-18T16:59:26.927Z,4.55
2018-10-18T17:02:02.426Z,5.00
2018-10-18T17:04:37.942Z,3.25
2018-10-18T17:07:13.241Z,4.25
2018-10-18T17:09:48.685Z,3.98
2018-10-18T17:12:24.217Z,4.10
2018-10-18T17:14:59.949Z,3.30
2018-10-18T17:17:35.635Z,4.05
2018-10-18T17:20:11.225Z,5.97
2018-10-18T17:22:46.510Z,3.75
2018-10-18T17:25:22.236Z,5.00
2018-10-18T17:27:57.693Z,9.15
2018-10-18T17:30:33.129Z,5.28
2018-10-18T17:33:08.485Z,4.83
2018-10-18T17:35:44.119Z,3.22
2018-10-18T17:38:19.584Z,9.50
2018-10-18T17:40:55.023Z,7.92
2018-10-18T17:43:30.746Z,7.95
2018-10-18T17:46:06.614Z,6.33
2018-10-18T17:48:42.118Z,5.70
2018-10-18T17:51:17.753Z,5.10
2018-10-18T17:53:53.281Z,4.90
2018-10-18T17:56:28.924Z,7.60
2018-10-18T17:59:04.435Z,6.00
2018-10-18T18:01:39.889Z,6.17
2018-10-18T18:04:15.519Z,8.35
2018-10-18T18:06:51.174Z,10.35
2018-10-18T18:09:26.468Z,7.28
2018-10-18T18:12:02.198Z,8.85
2018-10-18T18:14:37.574Z,6.90
2018-10-18T18:17:12.979Z,8.65
2018-10-18T18:19:48.441Z,7.00
2018-10-18T18:22:23.876Z,5.42
2018-10-18T18:24:59.418Z,6.97
2018-10-18T18:27:34.893Z,6.28
2018-10-18T18:30:12.773Z,7.55
2018-10-18T18:32:48.521Z,8.63
2018-10-18T18:35:23.953Z,8.28
2018-10-18T18:37:59.420Z,5.58
2018-10-18T18:40:34.732Z,7.85
2018-10-18T18:43:10.385Z,7.87
2018-10-18T18:45:45.879Z,11.30
2018-10-18T18:48:21.274Z,9.95
2018-10-18T18:50:56.660Z,10.15
2018-10-18T18:53:32.256Z,7.97
2018-10-18T18:56:07.717Z,6.47
2018-10-18T18:58:43.312Z,8.25
2018-10-18T19:01:18.859Z,8.00
2018-10-18T19:03:54.438Z,6.20
2018-10-18T19:06:29.839Z,6.00
2018-10-18T19:09:07.317Z,7.03
2018-10-18T19:11:42.644Z,4.60
2018-10-18T19:14:18.337Z,6.42
2018-10-18T19:16:53.870Z,6.10
2018-10-18T19:19:29.536Z,4.45
2018-10-18T19:22:04.899Z,4.83
2018-10-18T19:24:40.354Z,4.12
2018-10-18T19:27:15.841Z,4.90
2018-10-18T19:29:51.425Z,4.75
2018-10-18T19:32:26.940Z,6.97
2018-10-18T19:35:02.366Z,4.67
2018-10-18T19:37:37.855Z,6.15
2018-10-18T19:40:13.255Z,6.37
2018-10-18T19:42:48.878Z,4.03
2018-10-18T19:45:24.505Z,8.05
2018-10-18T19:47:59.953Z,6.40
2018-10-18T19:50:35.625Z,6.87
2018-10-18T19:53:10.962Z,5.03
2018-10-18T19:55:46.529Z,4.75
2018-10-18T19:58:22.301Z,5.62
2018-10-18T20:00:57.782Z,6.92
2018-10-18T20:03:33.237Z,8.20
2018-10-18T20:06:08.906Z,5.55
2018-10-18T20:08:44.425Z,10.90
2018-10-18T20:11:19.879Z,16.70
2018-10-18T20:13:55.395Z,5.37
2018-10-18T20:16:30.996Z,6.75
2018-10-18T20:19:06.901Z,10.80
2018-10-18T20:21:42.382Z,8.10
2018-10-18T20:24:17.649Z,9.58
2018-10-18T20:26:53.218Z,7.53
2018-10-18T20:29:28.516Z,6.55
2018-10-18T20:32:03.973Z,8.53
2018-10-18T20:34:39.211Z,8.75
2018-10-18T20:37:14.641Z,5.60
2018-10-18T20:39:50.000Z,9.43
2018-10-18T20:42:25.420Z,5.92
2018-10-18T20:45:00.933Z,19.75
2018-10-18T20:47:36.867Z,12.58
2018-10-18T20:50:12.644Z,17.17
2018-10-18T20:52:48.192Z,24.18
2018-10-18T20:55:23.696Z,7.12
2018-10-18T20:57:59.179Z,9.88
2018-10-18T21:00:34.600Z,8.68
2018-10-18T21:03:10.223Z,6.10
2018-10-18T21:05:45.534Z,9.20
2018-10-18T21:08:20.950Z,8.35
2018-10-18T21:10:56.306Z,14.50
2018-10-18T21:13:31.745Z,18.62
2018-10-18T21:16:07.368Z,18.40
2018-10-18T21:18:43.392Z,10.43
2018-10-18T21:21:18.694Z,12.80
2018-10-18T21:23:54.270Z,17.07
2018-10-18T21:26:29.613Z,8.80
2018-10-18T21:29:05.259Z,15.70
2018-10-18T21:31:40.637Z,15.25
2018-10-18T21:34:16.336Z,7.60
2018-10-18T21:36:51.797Z,10.60
2018-10-18T21:39:32.142Z,7.45
2018-10-18T21:42:07.521Z,10.30
2018-10-18T21:44:43.455Z,10.28
2018-10-18T21:47:18.885Z,16.20
2018-10-18T21:49:54.645Z,9.50
2018-10-18T21:52:29.901Z,14.35
2018-10-18T21:55:06.155Z,10.35
2018-10-18T21:57:41.353Z,11.22
2018-10-18T22:00:17.760Z,7.17
2018-10-18T22:02:53.282Z,7.92
2018-10-18T22:05:28.604Z,12.43
2018-10-18T22:08:04.075Z,9.50
2018-10-18T22:10:39.651Z,6.60
2018-10-18T22:13:15.114Z,9.60
2018-10-18T22:15:50.741Z,10.50
2018-10-18T22:18:26.319Z,15.90
2018-10-18T22:21:02.454Z,10.78
2018-10-18T22:23:37.949Z,10.08
2018-10-18T22:26:13.443Z,8.00
2018-10-18T22:28:48.895Z,6.80
2018-10-18T22:31:24.637Z,7.05
2018-10-18T22:34:00.025Z,8.50
2018-10-18T22:36:35.526Z,7.30
2018-10-18T22:39:11.616Z,10.43
2018-10-18T22:41:47.040Z,7.12
2018-10-18T22:44:22.490Z,6.85
2018-10-18T22:46:58.199Z,6.78
2018-10-18T22:49:33.548Z,6.50
2018-10-18T22:52:09.121Z,7.00
2018-10-18T22:54:44.533Z,6.12
2018-10-18T22:57:20.113Z,5.85
2018-10-18T22:59:55.422Z,7.53
2018-10-18T23:02:30.909Z,6.87
2018-10-18T23:05:06.413Z,5.28
2018-10-18T23:07:42.051Z,5.03
2018-10-18T23:10:17.407Z,6.80
2018-10-18T23:12:53.092Z,6.17
2018-10-18T23:15:29.181Z,5.40
2018-10-18T23:18:04.741Z,7.17
2018-10-18T23:20:41.057Z,5.87
2018-10-18T23:23:16.650Z,6.35
2018-10-18T23:25:52.025Z,5.80
2018-10-18T23:28:27.549Z,6.45
2018-10-18T23:31:03.054Z,5.87
2018-10-18T23:33:38.789Z,5.87
2018-10-18T23:36:14.093Z,5.33
2018-10-18T23:38:49.583Z,5.80
2018-10-18T23:41:24.751Z,5.03
2018-10-18T23:44:00.483Z,6.53
2018-10-18T23:46:35.804Z,5.70
2018-10-18T23:49:11.376Z,5.70
2018-10-18T23:51:46.796Z,6.33
2018-10-18T23:54:22.362Z,5.80
2018-10-18T23:56:57.839Z,5.55
2018-10-18T23:59:33.366Z,5.87
